createdAt,value
2022-08-05T00:00:17.302Z,100327.94
2022-08-05T00:02:50.953Z,100316.66
2022-08-05T00:06:01.922Z,100316.41
2022-08-05T00:08:35.215Z,100323.94
2022-08-05T00:11:00.426Z,100318.84
2022-08-05T00:13:38.285Z,100325.75
2022-08-05T00:16:12.203Z,100323.97
2022-08-05T00:18:42.193Z,100325.66
2022-08-05T00:21:09.659Z,100328.97
2022-08-05T00:23:46.028Z,100331.47
2022-08-05T00:26:20.814Z,100337.53
2022-08-05T00:28:49.495Z,100335.31
2022-08-05T00:31:16.751Z,100327.41
2022-08-05T00:34:56.057Z,100338.25
2022-08-05T00:37:12.424Z,100338.44
2022-08-05T00:39:41.486Z,100342.97
2022-08-05T00:42:11.548Z,100344.19
2022-08-05T00:44:58.511Z,100344.09
2022-08-05T00:47:26.615Z,100343.38
2022-08-05T00:50:13.565Z,100349.03
2022-08-05T00:52:40.377Z,100353.94
2022-08-05T00:55:07.471Z,100349.88
2022-08-05T00:57:55.303Z,100349.66
2022-08-05T01:00:22.031Z,100348.84
2022-08-05T01:02:53.125Z,100346.34
2022-08-05T01:05:20.138Z,100345.75
2022-08-05T01:08:40.188Z,100343.41
2022-08-05T01:10:56.344Z,100333.28
2022-08-05T01:13:58.403Z,100338.25
2022-08-05T01:16:39.307Z,100338.09
2022-08-05T01:19:18.311Z,100330.56
2022-08-05T01:21:58.395Z,100329.50
2022-08-05T01:24:58.035Z,100330.91
2022-08-05T01:27:55.135Z,100327.72
2022-08-05T01:30:34.216Z,100331.47
2022-08-05T01:33:06.132Z,100327.31
2022-08-05T01:35:51.920Z,100327.19
2022-08-05T01:38:27.091Z,100327.44
2022-08-05T01:40:56.280Z,100331.63
2022-08-05T01:43:24.742Z,100335.50
2022-08-05T01:45:56.721Z,100330.91
2022-08-05T01:48:26.312Z,100331.97
2022-08-05T01:50:55.584Z,100330.53
2022-08-05T01:53:57.433Z,100342.72
2022-08-05T01:56:11.723Z,100333.34
2022-08-05T01:58:40.989Z,100331.78
2022-08-05T02:01:24.659Z,100336.09
2022-08-05T02:03:53.700Z,100331.81
2022-08-05T02:06:37.808Z,100337.50
2022-08-05T02:09:06.379Z,100336.22
2022-08-05T02:11:42.288Z,100339.16
2022-08-05T02:14:18.775Z,100334.56
2022-08-05T02:16:52.842Z,100343.81
2022-08-05T02:19:46.911Z,100329.56
2022-08-05T02:22:27.386Z,100322.03
2022-08-05T02:25:02.119Z,100324.78
2022-08-05T02:27:59.289Z,100323.44
2022-08-05T02:30:22.190Z,100331.72
2022-08-05T02:32:51.900Z,100318.25
2022-08-05T02:35:27.655Z,100325.59
2022-08-05T02:37:55.803Z,100325.84
2022-08-05T02:40:26.194Z,100325.19
2022-08-05T02:42:55.345Z,100331.09
2022-08-05T02:45:24.484Z,100317.25
2022-08-05T02:48:06.337Z,100321.38
2022-08-05T02:50:39.031Z,100323.44
2022-08-05T02:53:12.046Z,100334.38
2022-08-05T02:55:53.730Z,100323.97
2022-08-05T02:58:23.192Z,100321.94
2022-08-05T03:00:56.167Z,100327.59
2022-08-05T03:03:23.419Z,100328.22
2022-08-05T03:06:54.059Z,100321.53
2022-08-05T03:08:42.338Z,100319.88
2022-08-05T03:11:55.382Z,100325.59
2022-08-05T03:14:13.295Z,100322.09
2022-08-05T03:16:41.071Z,100332.19
2022-08-05T03:19:16.884Z,100324.31
2022-08-05T03:21:48.718Z,100326.69
2022-08-05T03:24:29.419Z,100322.84
2022-08-05T03:27:01.243Z,100326.75
2022-08-05T03:29:45.392Z,100329.28
2022-08-05T03:32:16.501Z,100332.84
2022-08-05T03:34:50.697Z,100318.50
2022-08-05T03:37:19.724Z,100318.75
2022-08-05T03:39:59.219Z,100324.00
2022-08-05T03:42:29.224Z,100317.72
2022-08-05T03:44:58.882Z,100323.09
2022-08-05T03:47:35.212Z,100320.50
2022-08-05T03:50:02.554Z,100324.31
2022-08-05T03:52:50.074Z,100322.50
2022-08-05T03:56:05.885Z,100327.47
2022-08-05T03:58:16.854Z,100326.22
2022-08-05T04:00:46.463Z,100321.34
2022-08-05T04:03:28.864Z,100326.09
2022-08-05T04:05:57.645Z,100330.50
2022-08-05T04:08:30.253Z,100323.50
2022-08-05T04:11:04.796Z,100329.59
2022-08-05T04:13:50.268Z,100319.81
2022-08-05T04:16:24.223Z,100326.13
2022-08-05T04:19:00.066Z,100333.78
2022-08-05T04:22:08.318Z,100336.09
2022-08-05T04:24:19.355Z,100335.09
2022-08-05T04:26:50.251Z,100337.34
2022-08-05T04:29:17.124Z,100338.31
2022-08-05T04:31:43.943Z,100343.53
2022-08-05T04:34:31.830Z,100351.81
2022-08-05T04:37:00.116Z,100345.00
2022-08-05T04:39:27.882Z,100342.91
2022-08-05T04:41:55.446Z,100355.75
2022-08-05T04:44:29.455Z,100348.53
2022-08-05T04:47:09.628Z,100346.41
2022-08-05T04:50:01.495Z,100346.19
2022-08-05T04:52:28.261Z,100342.72
2022-08-05T04:54:57.094Z,100349.75
2022-08-05T04:57:29.271Z,100349.50
2022-08-05T04:59:58.615Z,100353.34
2022-08-05T05:02:41.291Z,100352.31
2022-08-05T05:05:26.209Z,100358.66
2022-08-05T05:08:01.794Z,100361.25
2022-08-05T05:10:33.859Z,100374.53
2022-08-05T05:13:03.767Z,100369.84
2022-08-05T05:15:56.739Z,100373.50
2022-08-05T05:18:28.694Z,100379.91
2022-08-05T05:21:00.095Z,100374.59
2022-08-05T05:23:27.240Z,100375.88
2022-08-05T05:26:14.141Z,100379.59
2022-08-05T05:28:44.741Z,100379.97
2022-08-05T05:31:12.396Z,100379.38
2022-08-05T05:33:58.748Z,100385.72
2022-08-05T05:36:28.536Z,100381.59
2022-08-05T05:38:57.309Z,100395.34
2022-08-05T05:41:24.625Z,100391.06
2022-08-05T05:43:58.493Z,100385.53
2022-08-05T05:46:27.618Z,100386.91
2022-08-05T05:48:54.460Z,100395.00
2022-08-05T05:51:27.904Z,100390.28
2022-08-05T05:53:59.495Z,100392.88
2022-08-05T05:56:31.555Z,100397.03
2022-08-05T05:59:03.444Z,100405.94
2022-08-05T06:01:38.197Z,100396.53
2022-08-05T06:04:13.180Z,100402.47
2022-08-05T06:06:43.095Z,100414.66
2022-08-05T06:09:17.300Z,100413.75
2022-08-05T06:12:01.160Z,100412.91
2022-08-05T06:14:34.628Z,100427.25
2022-08-05T06:17:22.063Z,100423.84
2022-08-05T06:19:56.567Z,100422.31
2022-08-05T06:22:34.804Z,100429.03
2022-08-05T06:25:59.251Z,100432.34
2022-08-05T06:28:10.965Z,100429.59
2022-08-05T06:30:39.257Z,100431.97
2022-08-05T06:33:09.927Z,100434.03
2022-08-05T06:36:07.137Z,100430.16
2022-08-05T06:38:35.821Z,100423.56
2022-08-05T06:41:05.062Z,100434.81
2022-08-05T06:43:57.661Z,100425.59
2022-08-05T06:46:19.328Z,100437.69
2022-08-05T06:48:53.685Z,100425.94
2022-08-05T06:51:30.217Z,100434.19
2022-08-05T06:54:02.349Z,100433.13
2022-08-05T06:56:30.416Z,100444.41
2022-08-05T06:59:01.818Z,100440.25
2022-08-05T07:01:32.588Z,100446.22
2022-08-05T07:04:03.124Z,100443.09
2022-08-05T07:06:30.483Z,100447.66
2022-08-05T07:08:59.246Z,100443.69
2022-08-05T07:11:28.728Z,100448.16
2022-08-05T07:14:20.220Z,100452.97
2022-08-05T07:18:01.399Z,100451.41
2022-08-05T07:22:29.134Z,100452.06
2022-08-05T07:25:22.444Z,100456.97
2022-08-05T07:27:58.398Z,100454.13
2022-08-05T07:30:34.481Z,100467.22
2022-08-05T07:33:09.206Z,100466.81
2022-08-05T07:35:56.817Z,100462.97
2022-08-05T07:38:33.210Z,100464.94
2022-08-05T07:42:06.799Z,100466.19
2022-08-05T07:43:53.258Z,100463.31
2022-08-05T07:46:25.319Z,100461.28
2022-08-05T07:49:02.068Z,100464.13
2022-08-05T07:51:37.215Z,100462.06
2022-08-05T07:54:09.705Z,100465.06
2022-08-05T07:57:00.412Z,100475.56
2022-08-05T07:59:38.027Z,100466.19
2022-08-05T08:02:15.916Z,100463.88
2022-08-05T08:04:46.571Z,100466.00
2022-08-05T08:07:14.046Z,100468.94
2022-08-05T08:09:42.164Z,100463.19
2022-08-05T08:12:19.943Z,100473.41
2022-08-05T08:14:56.089Z,100464.25
2022-08-05T08:17:23.702Z,100466.72
2022-08-05T08:20:21.751Z,100461.19
2022-08-05T08:22:41.617Z,100472.44
2022-08-05T08:25:15.768Z,100462.09
2022-08-05T08:27:47.412Z,100475.34
2022-08-05T08:30:29.840Z,100471.72
2022-08-05T08:33:04.686Z,100477.22
2022-08-05T08:35:41.027Z,100480.38
2022-08-05T08:38:11.850Z,100483.72
2022-08-05T08:40:47.788Z,100491.50
2022-08-05T08:44:56.398Z,100489.81
2022-08-05T08:46:06.729Z,100484.94
2022-08-05T08:48:59.374Z,100488.47
2022-08-05T08:52:03.820Z,100495.47
2022-08-05T08:54:13.755Z,100498.28
2022-08-05T08:56:47.738Z,100501.09
2022-08-05T08:59:20.779Z,100493.41
2022-08-05T09:01:57.350Z,100487.59
2022-08-05T09:04:30.327Z,100497.09
2022-08-05T09:06:58.639Z,100495.38
2022-08-05T09:09:34.845Z,100498.28
2022-08-05T09:12:20.039Z,100497.34
2022-08-05T09:14:59.377Z,100500.16
2022-08-05T09:17:42.256Z,100497.78
2022-08-05T09:20:11.598Z,100502.03
2022-08-05T09:23:18.734Z,100506.53
2022-08-05T09:26:02.843Z,100496.78
2022-08-05T09:28:33.418Z,100497.78
2022-08-05T09:31:23.542Z,100504.56
2022-08-05T09:34:07.808Z,100498.84
2022-08-05T09:36:54.115Z,100499.72
2022-08-05T09:39:27.778Z,100497.75
2022-08-05T09:42:13.625Z,100492.94
2022-08-05T09:44:56.401Z,100494.97
2022-08-05T09:47:26.265Z,100500.69
2022-08-05T09:50:02.536Z,100495.81
2022-08-05T09:52:32.075Z,100496.69
2022-08-05T09:55:06.454Z,100499.59
2022-08-05T09:57:48.706Z,100506.66
2022-08-05T10:00:21.252Z,100503.25
2022-08-05T10:02:58.469Z,100505.63
2022-08-05T10:05:27.998Z,100495.69
2022-08-05T10:08:34.917Z,100501.03
2022-08-05T10:10:44.181Z,100497.72
2022-08-05T10:13:11.533Z,100502.28
2022-08-05T10:15:41.827Z,100505.56
2022-08-05T10:18:12.398Z,100500.06
2022-08-05T10:20:44.101Z,100512.41
2022-08-05T10:23:34.617Z,100508.75
2022-08-05T10:26:08.089Z,100505.88
2022-08-05T10:28:44.056Z,100506.47
2022-08-05T10:32:47.307Z,100517.28
2022-08-05T10:34:01.305Z,100501.06
2022-08-05T10:36:28.507Z,100506.75
2022-08-05T10:39:01.260Z,100507.44
2022-08-05T10:41:47.374Z,100512.31
2022-08-05T10:44:17.934Z,100511.75
2022-08-05T10:46:54.084Z,100516.34
2022-08-05T10:49:27.188Z,100515.94
2022-08-05T10:52:02.725Z,100516.94
2022-08-05T10:55:02.350Z,100518.06
2022-08-05T10:57:31.916Z,100506.13
2022-08-05T11:00:22.864Z,100513.06
2022-08-05T11:03:24.452Z,100515.00
2022-08-05T11:06:08.402Z,100519.78
2022-08-05T11:09:24.417Z,100525.69
2022-08-05T11:12:07.289Z,100528.97
2022-08-05T11:15:01.040Z,100542.69
2022-08-05T11:17:59.624Z,100540.19
2022-08-05T11:20:44.016Z,100542.09
2022-08-05T11:23:33.626Z,100541.47
2022-08-05T11:26:11.642Z,100539.81
2022-08-05T11:28:43.243Z,100539.03
2022-08-05T11:31:10.330Z,100539.41
2022-08-05T11:33:51.748Z,100541.09
2022-08-05T11:36:42.821Z,100548.03
2022-08-05T11:39:12.147Z,100550.91
2022-08-05T11:42:01.508Z,100559.75
2022-08-05T11:44:53.274Z,100560.25
2022-08-05T11:47:48.235Z,100562.34
2022-08-05T11:50:10.371Z,100564.66
2022-08-05T11:52:40.912Z,100566.91
2022-08-05T11:55:11.470Z,100573.31
2022-08-05T11:58:09.388Z,100573.28
2022-08-05T12:00:38.372Z,100570.47
2022-08-05T12:03:16.738Z,100576.69
2022-08-05T12:06:03.142Z,100582.13
2022-08-05T12:08:33.369Z,100580.59
2022-08-05T12:11:05.435Z,100587.28
2022-08-05T12:13:49.631Z,100581.22
2022-08-05T12:16:20.368Z,100576.56
2022-08-05T12:18:55.142Z,100578.34
2022-08-05T12:21:30.052Z,100580.59
2022-08-05T12:24:10.884Z,100572.50
2022-08-05T12:26:44.236Z,100581.16
2022-08-05T12:29:22.736Z,100573.06
2022-08-05T12:32:02.220Z,100580.34
2022-08-05T12:34:35.773Z,100583.53
2022-08-05T12:37:10.806Z,100584.81
2022-08-05T12:39:45.141Z,100588.25
2022-08-05T12:42:19.685Z,100584.63
2022-08-05T12:44:47.602Z,100587.66
2022-08-05T12:47:31.924Z,100601.94
2022-08-05T12:50:02.086Z,100611.28
2022-08-05T12:52:39.487Z,100601.09
2022-08-05T12:55:25.514Z,100602.47
2022-08-05T12:58:49.054Z,100601.94
2022-08-05T13:02:00.872Z,100597.66
2022-08-05T13:03:39.096Z,100599.16
2022-08-05T13:06:11.650Z,100598.69
2022-08-05T13:08:38.904Z,100604.72
2022-08-05T13:11:07.915Z,100593.53
2022-08-05T13:14:05.103Z,100597.66
2022-08-05T13:16:27.987Z,100602.22
2022-08-05T13:18:57.968Z,100600.88
2022-08-05T13:21:28.135Z,100604.16
2022-08-05T13:24:04.936Z,100617.91
2022-08-05T13:26:31.742Z,100623.09
2022-08-05T13:28:59.188Z,100627.56
2022-08-05T13:32:02.933Z,100637.63
2022-08-05T13:34:21.944Z,100633.03
2022-08-05T13:36:53.219Z,100638.16
2022-08-05T13:40:14.631Z,100642.63
2022-08-05T13:42:07.690Z,100649.41
2022-08-05T13:44:45.428Z,100654.63
2022-08-05T13:47:34.657Z,100652.25
2022-08-05T13:50:04.252Z,100660.19
2022-08-05T13:52:32.294Z,100659.88
2022-08-05T13:55:07.932Z,100655.28
2022-08-05T13:57:50.702Z,100662.94
2022-08-05T14:00:30.646Z,100671.28
2022-08-05T14:02:57.782Z,100667.63
2022-08-05T14:05:47.929Z,100669.97
2022-08-05T14:08:21.352Z,100660.91
2022-08-05T14:11:03.362Z,100655.34
2022-08-05T14:13:42.418Z,100654.06
2022-08-05T14:16:11.473Z,100659.41
2022-08-05T14:18:38.699Z,100661.91
2022-08-05T14:22:08.794Z,100668.34
2022-08-05T14:23:53.700Z,100661.22
2022-08-05T14:26:35.673Z,100660.06
2022-08-05T14:29:06.476Z,100661.91
2022-08-05T14:32:03.026Z,100664.69
2022-08-05T14:34:35.135Z,100660.44
2022-08-05T14:37:04.497Z,100660.50
2022-08-05T14:39:49.474Z,100662.19
2022-08-05T14:42:21.388Z,100666.72
2022-08-05T14:44:56.561Z,100668.63
2022-08-05T14:48:04.006Z,100667.72
2022-08-05T14:50:17.849Z,100665.81
2022-08-05T14:52:52.954Z,100657.16
2022-08-05T14:55:20.282Z,100665.97
2022-08-05T14:57:54.201Z,100669.25
2022-08-05T15:00:27.864Z,100652.91
2022-08-05T15:02:55.617Z,100659.72
2022-08-05T15:05:29.828Z,100657.88
2022-08-05T15:08:08.546Z,100658.34
2022-08-05T15:10:41.554Z,100664.59
2022-08-05T15:13:10.079Z,100666.22
2022-08-05T15:15:54.314Z,100673.34
2022-08-05T15:18:23.691Z,100679.22
2022-08-05T15:20:50.943Z,100690.81
2022-08-05T15:23:18.293Z,100701.50
2022-08-05T15:25:51.996Z,100711.06
2022-08-05T15:28:27.017Z,100706.41
2022-08-05T15:30:55.113Z,100706.28
2022-08-05T15:34:05.014Z,100702.50
2022-08-05T15:36:17.357Z,100703.47
2022-08-05T15:40:41.369Z,100699.53
2022-08-05T15:41:55.939Z,100690.63
2022-08-05T15:44:24.153Z,100695.41
2022-08-05T15:46:52.667Z,100689.16
2022-08-05T15:49:27.441Z,100687.47
2022-08-05T15:52:16.909Z,100681.06
2022-08-05T15:54:53.685Z,100682.91
2022-08-05T15:57:23.612Z,100694.56
2022-08-05T15:59:54.034Z,100693.19
2022-08-05T16:02:25.505Z,100703.59
2022-08-05T16:04:55.371Z,100704.31
2022-08-05T16:07:22.898Z,100710.47
2022-08-05T16:09:50.183Z,100716.06
2022-08-05T16:12:17.594Z,100714.16
2022-08-05T16:14:46.934Z,100715.63
2022-08-05T16:17:13.833Z,100723.75
2022-08-05T16:20:03.640Z,100726.75
2022-08-05T16:22:34.025Z,100733.56
2022-08-05T16:25:05.441Z,100731.09
2022-08-05T16:27:59.740Z,100732.19
2022-08-05T16:30:26.141Z,100721.88
2022-08-05T16:32:54.103Z,100725.38
2022-08-05T16:35:27.877Z,100725.19
2022-08-05T16:38:15.304Z,100736.97
2022-08-05T16:40:51.894Z,100734.84
2022-08-05T16:43:24.134Z,100731.13
2022-08-05T16:46:04.636Z,100729.94
2022-08-05T16:48:35.955Z,100736.50
2022-08-05T16:51:08.654Z,100739.00
2022-08-05T16:54:02.865Z,100729.38
2022-08-05T16:56:24.154Z,100724.31
2022-08-05T16:58:51.390Z,100731.38
2022-08-05T17:01:19.144Z,100731.59
2022-08-05T17:03:46.539Z,100741.28
2022-08-05T17:06:16.627Z,100738.25
2022-08-05T17:08:52.763Z,100739.22
2022-08-05T17:11:25.515Z,100750.66
2022-08-05T17:14:00.550Z,100746.84
2022-08-05T17:16:37.987Z,100743.56
2022-08-05T17:19:07.517Z,100750.59
2022-08-05T17:21:37.316Z,100760.28
2022-08-05T17:24:14.395Z,100763.97
2022-08-05T17:26:53.706Z,100763.09
2022-08-05T17:29:39.804Z,100770.28
2022-08-05T17:32:26.123Z,100773.66
2022-08-05T17:34:53.082Z,100765.22
2022-08-05T17:37:40.648Z,100771.59
2022-08-05T17:40:10.148Z,100770.09
2022-08-05T17:42:41.436Z,100765.03
2022-08-05T17:45:20.694Z,100774.44
2022-08-05T17:47:54.891Z,100766.63
2022-08-05T17:50:29.517Z,100762.91
2022-08-05T17:52:59.586Z,100767.69
2022-08-05T17:55:34.713Z,100770.75
2022-08-05T17:58:10.837Z,100774.13
2022-08-05T18:00:44.971Z,100765.69
2022-08-05T18:03:27.988Z,100774.28
2022-08-05T18:06:04.901Z,100779.97
2022-08-05T18:08:33.725Z,100787.34
2022-08-05T18:11:01.165Z,100780.31
2022-08-05T18:13:36.854Z,100780.50
2022-08-05T18:16:13.705Z,100789.25
2022-08-05T18:18:41.249Z,100785.47
2022-08-05T18:21:13.386Z,100784.75
2022-08-05T18:23:47.337Z,100787.78
2022-08-05T18:26:14.698Z,100800.94
2022-08-05T18:28:46.359Z,100789.50
2022-08-05T18:31:13.432Z,100798.34
2022-08-05T18:33:47.113Z,100804.72
2022-08-05T18:36:17.366Z,100796.41
2022-08-05T18:38:46.226Z,100798.03
2022-08-05T18:41:55.880Z,100802.81
2022-08-05T18:44:06.276Z,100806.25
2022-08-05T18:46:34.606Z,100806.34
2022-08-05T18:49:21.283Z,100809.00
2022-08-05T18:52:08.835Z,100818.00
2022-08-05T18:54:36.022Z,100820.13
2022-08-05T18:57:09.658Z,100827.13
2022-08-05T19:00:01.452Z,100834.34
2022-08-05T19:02:29.605Z,100840.97
2022-08-05T19:05:02.981Z,100847.03
2022-08-05T19:07:50.127Z,100846.97
2022-08-05T19:10:28.162Z,100848.44
2022-08-05T19:12:58.765Z,100849.19
2022-08-05T19:15:59.815Z,100859.50
2022-08-05T19:18:21.886Z,100863.03
2022-08-05T19:20:54.011Z,100873.78
2022-08-05T19:24:03.604Z,100870.28
2022-08-05T19:26:09.304Z,100865.97
2022-08-05T19:28:42.070Z,100871.13
2022-08-05T19:31:09.548Z,100878.00
2022-08-05T19:33:40.728Z,100867.09
2022-08-05T19:36:16.993Z,100874.06
2022-08-05T19:38:45.539Z,100879.72
2022-08-05T19:41:12.775Z,100881.81
2022-08-05T19:44:06.283Z,100883.84
2022-08-05T19:46:30.268Z,100884.56
2022-08-05T19:49:01.133Z,100884.06
2022-08-05T19:52:08.536Z,100886.53
2022-08-05T19:54:25.474Z,100895.00
2022-08-05T19:56:58.830Z,100901.09
2022-08-05T19:59:54.000Z,100901.94
2022-08-05T20:02:14.883Z,100901.00
2022-08-05T20:04:45.839Z,100904.47
2022-08-05T20:07:14.159Z,100912.03
2022-08-05T20:09:55.000Z,100914.97
2022-08-05T20:12:25.344Z,100912.72
2022-08-05T20:14:53.245Z,100921.78
2022-08-05T20:17:23.533Z,100924.16
2022-08-05T20:19:56.743Z,100918.06
2022-08-05T20:22:26.790Z,100926.50
2022-08-05T20:24:55.489Z,100926.63
2022-08-05T20:27:26.939Z,100932.59
2022-08-05T20:29:58.959Z,100928.63
2022-08-05T20:32:27.146Z,100929.78
2022-08-05T20:34:54.866Z,100934.72
2022-08-05T20:38:04.732Z,100939.03
2022-08-05T20:40:10.013Z,100933.47
2022-08-05T20:42:36.933Z,100930.47
2022-08-05T20:45:05.249Z,100937.88
2022-08-05T20:47:32.853Z,100944.94
2022-08-05T20:50:02.266Z,100944.03
2022-08-05T20:52:30.017Z,100946.84
2022-08-05T20:55:15.935Z,100946.50
2022-08-05T20:57:45.097Z,100951.41
2022-08-05T21:00:40.709Z,100946.34
2022-08-05T21:03:06.360Z,100958.84
2022-08-05T21:05:47.665Z,100957.56
2022-08-05T21:08:28.106Z,100955.41
2022-08-05T21:11:11.629Z,100956.94
2022-08-05T21:13:55.758Z,100963.16
2022-08-05T21:16:29.938Z,100968.81
2022-08-05T21:19:00.332Z,100970.28
2022-08-05T21:21:39.231Z,100977.59
2022-08-05T21:24:13.134Z,100972.19
2022-08-05T21:26:41.391Z,100976.81
2022-08-05T21:29:12.564Z,100980.31
2022-08-05T21:31:43.669Z,100984.34
2022-08-05T21:34:11.364Z,100976.75
2022-08-05T21:36:39.239Z,100978.66
2022-08-05T21:39:10.151Z,100973.66
2022-08-05T21:41:41.703Z,100967.97
2022-08-05T21:44:19.329Z,100975.69
2022-08-05T21:46:54.030Z,100975.63
2022-08-05T21:49:48.364Z,100978.84
2022-08-05T21:52:22.458Z,100969.50
2022-08-05T21:54:57.084Z,100964.59
2022-08-05T21:57:32.534Z,100962.47
2022-08-05T22:00:05.969Z,100951.00
2022-08-05T22:02:42.878Z,100956.00
2022-08-05T22:05:11.571Z,100954.28
2022-08-05T22:07:54.274Z,100952.41
2022-08-05T22:14:18.277Z,100957.34
2022-08-05T22:16:39.623Z,100958.19
2022-08-05T22:19:03.097Z,100959.38
2022-08-05T22:21:42.167Z,100959.31
2022-08-05T22:24:39.729Z,100963.25
2022-08-05T22:28:09.781Z,100971.63
2022-08-05T22:30:15.121Z,100971.38
2022-08-05T22:32:44.226Z,100972.19
2022-08-05T22:35:13.347Z,100970.41
2022-08-05T22:37:58.984Z,100981.16
2022-08-05T22:40:26.817Z,100983.00
2022-08-05T22:42:58.139Z,100981.97
2022-08-05T22:45:26.510Z,100984.22
2022-08-05T22:47:57.250Z,100978.16
2022-08-05T22:50:27.702Z,100984.31
2022-08-05T22:52:55.107Z,100986.25
2022-08-05T22:55:23.661Z,100988.00
2022-08-05T22:57:51.828Z,100995.03
2022-08-05T23:00:21.515Z,100983.72
2022-08-05T23:02:49.830Z,100988.56
2022-08-05T23:05:17.616Z,100987.59
2022-08-05T23:07:49.581Z,100994.50
2022-08-05T23:10:20.059Z,100986.84
2022-08-05T23:12:51.286Z,100987.34
2022-08-05T23:15:22.671Z,100974.97
2022-08-05T23:18:01.819Z,100983.34
2022-08-05T23:20:31.477Z,100983.16
2022-08-05T23:22:59.298Z,100977.13
2022-08-05T23:25:50.923Z,100975.84
2022-08-05T23:28:15.876Z,100973.66
2022-08-05T23:30:53.583Z,100985.97
2022-08-05T23:33:39.314Z,100984.88
2022-08-05T23:36:10.557Z,100992.75
2022-08-05T23:38:38.180Z,100988.44
2022-08-05T23:41:05.149Z,100994.44
2022-08-05T23:43:37.323Z,100996.59
2022-08-05T23:46:21.982Z,101000.16
2022-08-05T23:49:01.076Z,100994.78
2022-08-05T23:51:57.088Z,100998.38
2022-08-05T23:54:29.971Z,100997.78
2022-08-05T23:57:03.728Z,100997.00
